sensor_id;sensor_type;location;lat;lon;timestamp;P1;durP1;ratioP1;P2;durP2;ratioP2
15944;SDS011;30172;48.832;8.732;2022-12-10T00:01:22;52.10;;;29.70;;
15944;SDS011;30172;48.832;8.732;2022-12-10T00:03:48;48.23;;;29.10;;
15944;SDS011;30172;48.832;8.732;2022-12-10T00:06:14;52.40;;;30.33;;
15944;SDS011;30172;48.832;8.732;2022-12-10T00:08:45;55.73;;;30.27;;
15944;SDS011;30172;48.832;8.732;2022-12-10T00:11:11;48.70;;;29.00;;
15944;SDS011;30172;48.832;8.732;2022-12-10T00:13:38;48.60;;;28.50;;
15944;SDS011;30172;48.832;8.732;2022-12-10T00:16:05;50.97;;;28.70;;
15944;SDS011;30172;48.832;8.732;2022-12-10T00:18:31;49.27;;;29.57;;
15944;SDS011;30172;48.832;8.732;2022-12-10T00:20:57;49.50;;;29.23;;
15944;SDS011;30172;48.832;8.732;2022-12-10T00:23:22;48.90;;;30.27;;
15944;SDS011;30172;48.832;8.732;2022-12-10T00:25:48;49.80;;;30.47;;
15944;SDS011;30172;48.832;8.732;2022-12-10T00:28:13;54.67;;;32.17;;
15944;SDS011;30172;48.832;8.732;2022-12-10T00:30:39;47.27;;;28.63;;
15944;SDS011;30172;48.832;8.732;2022-12-10T00:33:04;55.30;;;29.73;;
15944;SDS011;30172;48.832;8.732;2022-12-10T00:35:29;49.80;;;30.10;;
15944;SDS011;30172;48.832;8.732;2022-12-10T00:37:54;50.40;;;31.00;;
15944;SDS011;30172;48.832;8.732;2022-12-10T00:40:20;45.23;;;28.67;;
15944;SDS011;30172;48.832;8.732;2022-12-10T00:42:45;47.37;;;30.10;;
15944;SDS011;30172;48.832;8.732;2022-12-10T00:45:11;44.53;;;28.63;;
15944;SDS011;30172;48.832;8.732;2022-12-10T00:47:36;50.10;;;28.93;;
15944;SDS011;30172;48.832;8.732;2022-12-10T00:50:01;52.97;;;30.23;;
15944;SDS011;30172;48.832;8.732;2022-12-10T00:52:27;46.23;;;30.07;;
15944;SDS011;30172;48.832;8.732;2022-12-10T00:54:52;47.30;;;28.57;;
15944;SDS011;30172;48.832;8.732;2022-12-10T00:57:17;51.17;;;30.80;;
15944;SDS011;30172;48.832;8.732;2022-12-10T00:59:43;50.53;;;30.90;;
15944;SDS011;30172;48.832;8.732;2022-12-10T01:02:08;50.13;;;30.40;;
15944;SDS011;30172;48.832;8.732;2022-12-10T01:04:33;48.87;;;28.33;;
15944;SDS011;30172;48.832;8.732;2022-12-10T01:06:59;51.77;;;29.07;;
15944;SDS011;30172;48.832;8.732;2022-12-10T01:09:25;51.07;;;30.47;;
15944;SDS011;30172;48.832;8.732;2022-12-10T01:11:53;48.50;;;30.37;;
15944;SDS011;30172;48.832;8.732;2022-12-10T01:14:22;52.50;;;30.03;;
15944;SDS011;30172;48.832;8.732;2022-12-10T01:16:49;50.03;;;30.10;;
15944;SDS011;30172;48.832;8.732;2022-12-10T01:19:15;54.33;;;31.77;;
15944;SDS011;30172;48.832;8.732;2022-12-10T01:21:40;51.97;;;30.17;;
15944;SDS011;30172;48.832;8.732;2022-12-10T01:24:06;50.97;;;31.10;;
15944;SDS011;30172;48.832;8.732;2022-12-10T01:26:32;53.27;;;31.87;;
15944;SDS011;30172;48.832;8.732;2022-12-10T01:28:59;53.00;;;30.83;;
15944;SDS011;30172;48.832;8.732;2022-12-10T01:31:28;56.27;;;31.60;;
15944;SDS011;30172;48.832;8.732;2022-12-10T01:33:56;51.53;;;30.07;;
15944;SDS011;30172;48.832;8.732;2022-12-10T01:36:24;55.13;;;30.83;;
15944;SDS011;30172;48.832;8.732;2022-12-10T01:38:51;53.27;;;29.17;;
15944;SDS011;30172;48.832;8.732;2022-12-10T01:41:18;53.57;;;30.87;;
15944;SDS011;30172;48.832;8.732;2022-12-10T01:43:58;48.47;;;29.23;;
15944;SDS011;30172;48.832;8.732;2022-12-10T01:46:26;47.27;;;28.57;;
15944;SDS011;30172;48.832;8.732;2022-12-10T01:48:53;50.57;;;29.03;;
15944;SDS011;30172;48.832;8.732;2022-12-10T01:51:19;48.27;;;29.00;;
15944;SDS011;30172;48.832;8.732;2022-12-10T01:53:44;48.03;;;28.17;;
15944;SDS011;30172;48.832;8.732;2022-12-10T01:56:10;51.00;;;30.33;;
15944;SDS011;30172;48.832;8.732;2022-12-10T01:58:36;44.93;;;27.90;;
15944;SDS011;30172;48.832;8.732;2022-12-10T02:01:13;47.70;;;28.53;;
15944;SDS011;30172;48.832;8.732;2022-12-10T02:06:19;49.90;;;29.30;;
15944;SDS011;30172;48.832;8.732;2022-12-10T02:08:53;52.33;;;28.60;;
15944;SDS011;30172;48.832;8.732;2022-12-10T02:11:29;49.03;;;29.70;;
15944;SDS011;30172;48.832;8.732;2022-12-10T02:14:02;47.60;;;28.57;;
15944;SDS011;30172;48.832;8.732;2022-12-10T02:16:36;46.90;;;29.17;;
15944;SDS011;30172;48.832;8.732;2022-12-10T02:19:07;48.27;;;28.93;;
15944;SDS011;30172;48.832;8.732;2022-12-10T02:21:42;49.80;;;29.13;;
15944;SDS011;30172;48.832;8.732;2022-12-10T02:24:10;52.60;;;29.20;;
15944;SDS011;30172;48.832;8.732;2022-12-10T02:29:35;49.87;;;30.30;;
15944;SDS011;30172;48.832;8.732;2022-12-10T02:32:03;46.40;;;28.70;;
15944;SDS011;30172;48.832;8.732;2022-12-10T02:34:31;50.83;;;28.40;;
15944;SDS011;30172;48.832;8.732;2022-12-10T02:37:00;45.03;;;29.33;;
15944;SDS011;30172;48.832;8.732;2022-12-10T02:39:29;48.53;;;28.30;;
15944;SDS011;30172;48.832;8.732;2022-12-10T02:41:58;47.70;;;27.97;;
15944;SDS011;30172;48.832;8.732;2022-12-10T02:44:25;48.80;;;27.70;;
15944;SDS011;30172;48.832;8.732;2022-12-10T02:46:53;40.87;;;26.83;;
15944;SDS011;30172;48.832;8.732;2022-12-10T02:49:19;44.63;;;28.40;;
15944;SDS011;30172;48.832;8.732;2022-12-10T02:51:45;42.63;;;28.30;;
15944;SDS011;30172;48.832;8.732;2022-12-10T03:05:40;45.43;;;28.87;;
15944;SDS011;30172;48.832;8.732;2022-12-10T03:13:40;53.27;;;31.97;;
15944;SDS011;30172;48.832;8.732;2022-12-10T03:16:10;52.50;;;30.77;;
15944;SDS011;30172;48.832;8.732;2022-12-10T03:18:36;53.90;;;30.47;;
15944;SDS011;30172;48.832;8.732;2022-12-10T03:21:03;48.80;;;28.90;;
15944;SDS011;30172;48.832;8.732;2022-12-10T03:23:30;50.17;;;30.03;;
15944;SDS011;30172;48.832;8.732;2022-12-10T03:25:57;47.53;;;27.63;;
15944;SDS011;30172;48.832;8.732;2022-12-10T03:28:23;46.63;;;29.47;;
15944;SDS011;30172;48.832;8.732;2022-12-10T03:30:50;49.17;;;29.73;;
15944;SDS011;30172;48.832;8.732;2022-12-10T03:33:16;46.20;;;28.67;;
15944;SDS011;30172;48.832;8.732;2022-12-10T03:35:42;48.50;;;30.03;;
15944;SDS011;30172;48.832;8.732;2022-12-10T03:38:08;48.57;;;27.63;;
15944;SDS011;30172;48.832;8.732;2022-12-10T03:40:34;44.63;;;27.30;;
15944;SDS011;30172;48.832;8.732;2022-12-10T03:42:59;49.50;;;30.03;;
15944;SDS011;30172;48.832;8.732;2022-12-10T03:45:24;53.40;;;30.67;;
15944;SDS011;30172;48.832;8.732;2022-12-10T03:47:50;45.97;;;28.73;;
15944;SDS011;30172;48.832;8.732;2022-12-10T03:50:15;45.63;;;29.10;;
15944;SDS011;30172;48.832;8.732;2022-12-10T03:52:41;46.57;;;29.33;;
15944;SDS011;30172;48.832;8.732;2022-12-10T03:55:06;51.17;;;28.97;;
15944;SDS011;30172;48.832;8.732;2022-12-10T03:57:32;48.70;;;29.07;;
15944;SDS011;30172;48.832;8.732;2022-12-10T03:59:58;46.40;;;27.30;;
15944;SDS011;30172;48.832;8.732;2022-12-10T04:02:23;42.20;;;26.60;;
15944;SDS011;30172;48.832;8.732;2022-12-10T04:04:48;48.83;;;30.07;;
15944;SDS011;30172;48.832;8.732;2022-12-10T04:07:14;46.70;;;29.83;;
15944;SDS011;30172;48.832;8.732;2022-12-10T04:09:39;47.87;;;28.70;;
15944;SDS011;30172;48.832;8.732;2022-12-10T04:12:04;46.20;;;28.27;;
15944;SDS011;30172;48.832;8.732;2022-12-10T04:14:30;48.47;;;28.77;;
15944;SDS011;30172;48.832;8.732;2022-12-10T04:17:14;47.70;;;28.20;;
15944;SDS011;30172;48.832;8.732;2022-12-10T04:19:39;43.63;;;27.97;;
15944;SDS011;30172;48.832;8.732;2022-12-10T04:22:04;51.63;;;28.47;;
15944;SDS011;30172;48.832;8.732;2022-12-10T04:24:48;45.73;;;27.87;;
15944;SDS011;30172;48.832;8.732;2022-12-10T04:27:52;45.03;;;27.50;;
15944;SDS011;30172;48.832;8.732;2022-12-10T04:30:17;44.47;;;27.20;;
15944;SDS011;30172;48.832;8.732;2022-12-10T04:32:43;48.63;;;29.57;;
15944;SDS011;30172;48.832;8.732;2022-12-10T04:35:08;43.53;;;27.83;;
15944;SDS011;30172;48.832;8.732;2022-12-10T04:37:34;46.67;;;28.03;;
15944;SDS011;30172;48.832;8.732;2022-12-10T04:39:59;51.83;;;29.83;;
15944;SDS011;30172;48.832;8.732;2022-12-10T04:42:25;49.40;;;28.50;;
15944;SDS011;30172;48.832;8.732;2022-12-10T04:44:50;44.70;;;27.57;;
15944;SDS011;30172;48.832;8.732;2022-12-10T04:47:15;50.80;;;28.13;;
15944;SDS011;30172;48.832;8.732;2022-12-10T04:49:41;44.43;;;26.83;;
15944;SDS011;30172;48.832;8.732;2022-12-10T04:52:07;44.97;;;27.57;;
15944;SDS011;30172;48.832;8.732;2022-12-10T04:54:38;45.60;;;28.13;;
15944;SDS011;30172;48.832;8.732;2022-12-10T04:57:03;46.13;;;28.13;;
15944;SDS011;30172;48.832;8.732;2022-12-10T04:59:28;49.73;;;30.20;;
15944;SDS011;30172;48.832;8.732;2022-12-10T05:01:53;53.70;;;29.50;;
15944;SDS011;30172;48.832;8.732;2022-12-10T05:04:19;51.73;;;30.20;;
15944;SDS011;30172;48.832;8.732;2022-12-10T05:06:44;43.30;;;28.07;;
15944;SDS011;30172;48.832;8.732;2022-12-10T05:09:10;47.97;;;28.53;;
15944;SDS011;30172;48.832;8.732;2022-12-10T05:11:37;46.70;;;28.23;;
15944;SDS011;30172;48.832;8.732;2022-12-10T05:14:03;54.33;;;30.50;;
15944;SDS011;30172;48.832;8.732;2022-12-10T05:16:29;43.93;;;27.00;;
15944;SDS011;30172;48.832;8.732;2022-12-10T05:18:55;54.07;;;31.27;;
15944;SDS011;30172;48.832;8.732;2022-12-10T05:21:22;53.30;;;29.23;;
15944;SDS011;30172;48.832;8.732;2022-12-10T05:23:50;54.00;;;30.23;;
15944;SDS011;30172;48.832;8.732;2022-12-10T05:26:17;55.53;;;31.10;;
15944;SDS011;30172;48.832;8.732;2022-12-10T05:28:44;51.77;;;30.87;;
15944;SDS011;30172;48.832;8.732;2022-12-10T05:31:12;43.67;;;27.87;;
15944;SDS011;30172;48.832;8.732;2022-12-10T05:33:42;47.90;;;28.83;;
15944;SDS011;30172;48.832;8.732;2022-12-10T05:36:09;52.50;;;29.17;;
15944;SDS011;30172;48.832;8.732;2022-12-10T05:38:35;51.73;;;29.13;;
15944;SDS011;30172;48.832;8.732;2022-12-10T05:41:04;51.37;;;28.80;;
15944;SDS011;30172;48.832;8.732;2022-12-10T05:43:31;49.63;;;28.90;;
15944;SDS011;30172;48.832;8.732;2022-12-10T05:46:04;53.40;;;30.10;;
15944;SDS011;30172;48.832;8.732;2022-12-10T05:48:30;51.90;;;29.87;;
15944;SDS011;30172;48.832;8.732;2022-12-10T05:50:56;54.47;;;30.43;;
15944;SDS011;30172;48.832;8.732;2022-12-10T05:53:22;55.93;;;30.97;;
15944;SDS011;30172;48.832;8.732;2022-12-10T05:55:48;56.77;;;31.13;;
15944;SDS011;30172;48.832;8.732;2022-12-10T05:58:14;57.03;;;31.53;;
15944;SDS011;30172;48.832;8.732;2022-12-10T06:00:39;54.30;;;31.63;;
15944;SDS011;30172;48.832;8.732;2022-12-10T06:03:05;58.20;;;32.47;;
15944;SDS011;30172;48.832;8.732;2022-12-10T06:05:39;57.33;;;32.97;;
15944;SDS011;30172;48.832;8.732;2022-12-10T06:08:05;53.00;;;31.77;;
15944;SDS011;30172;48.832;8.732;2022-12-10T06:10:33;60.33;;;33.03;;
15944;SDS011;30172;48.832;8.732;2022-12-10T06:12:59;55.37;;;32.73;;
15944;SDS011;30172;48.832;8.732;2022-12-10T06:15:24;61.67;;;34.40;;
15944;SDS011;30172;48.832;8.732;2022-12-10T06:17:49;56.90;;;33.27;;
15944;SDS011;30172;48.832;8.732;2022-12-10T06:20:15;59.57;;;32.27;;
15944;SDS011;30172;48.832;8.732;2022-12-10T06:22:40;57.07;;;33.30;;
15944;SDS011;30172;48.832;8.732;2022-12-10T06:25:05;57.97;;;33.27;;
15944;SDS011;30172;48.832;8.732;2022-12-10T06:27:31;65.40;;;36.00;;
15944;SDS011;30172;48.832;8.732;2022-12-10T06:29:57;61.70;;;32.93;;
15944;SDS011;30172;48.832;8.732;2022-12-10T06:32:22;58.40;;;33.57;;
15944;SDS011;30172;48.832;8.732;2022-12-10T06:34:47;64.93;;;34.97;;
15944;SDS011;30172;48.832;8.732;2022-12-10T06:37:13;64.50;;;33.83;;
15944;SDS011;30172;48.832;8.732;2022-12-10T06:39:38;63.43;;;33.53;;
15944;SDS011;30172;48.832;8.732;2022-12-10T06:42:03;62.07;;;33.93;;
15944;SDS011;30172;48.832;8.732;2022-12-10T06:44:30;56.87;;;33.47;;
15944;SDS011;30172;48.832;8.732;2022-12-10T06:46:55;63.30;;;32.70;;
15944;SDS011;30172;48.832;8.732;2022-12-10T06:49:21;57.83;;;33.13;;
15944;SDS011;30172;48.832;8.732;2022-12-10T06:51:46;57.27;;;33.07;;
15944;SDS011;30172;48.832;8.732;2022-12-10T06:54:12;60.10;;;33.47;;
15944;SDS011;30172;48.832;8.732;2022-12-10T06:56:37;58.63;;;32.37;;
15944;SDS011;30172;48.832;8.732;2022-12-10T06:59:06;56.50;;;31.60;;
15944;SDS011;30172;48.832;8.732;2022-12-10T07:01:31;59.07;;;33.23;;
15944;SDS011;30172;48.832;8.732;2022-12-10T07:03:57;55.53;;;31.73;;
15944;SDS011;30172;48.832;8.732;2022-12-10T07:06:23;50.47;;;31.17;;
15944;SDS011;30172;48.832;8.732;2022-12-10T07:08:49;57.63;;;32.33;;
15944;SDS011;30172;48.832;8.732;2022-12-10T07:11:17;55.37;;;32.33;;
15944;SDS011;30172;48.832;8.732;2022-12-10T07:13:45;57.13;;;31.77;;
15944;SDS011;30172;48.832;8.732;2022-12-10T07:16:29;59.33;;;32.17;;
15944;SDS011;30172;48.832;8.732;2022-12-10T07:18:56;56.33;;;33.40;;
15944;SDS011;30172;48.832;8.732;2022-12-10T07:21:24;57.03;;;32.33;;
15944;SDS011;30172;48.832;8.732;2022-12-10T07:23:51;56.13;;;31.37;;
15944;SDS011;30172;48.832;8.732;2022-12-10T07:26:18;56.47;;;31.50;;
15944;SDS011;30172;48.832;8.732;2022-12-10T07:28:44;61.57;;;32.57;;
15944;SDS011;30172;48.832;8.732;2022-12-10T07:31:09;55.10;;;32.40;;
15944;SDS011;30172;48.832;8.732;2022-12-10T07:33:35;60.40;;;32.37;;
15944;SDS011;30172;48.832;8.732;2022-12-10T07:36:04;55.27;;;29.50;;
15944;SDS011;30172;48.832;8.732;2022-12-10T07:38:30;59.10;;;31.37;;
15944;SDS011;30172;48.832;8.732;2022-12-10T07:40:56;57.83;;;31.30;;
15944;SDS011;30172;48.832;8.732;2022-12-10T07:43:21;60.03;;;33.43;;
15944;SDS011;30172;48.832;8.732;2022-12-10T07:45:46;59.77;;;33.23;;
15944;SDS011;30172;48.832;8.732;2022-12-10T07:48:12;56.43;;;31.37;;
15944;SDS011;30172;48.832;8.732;2022-12-10T07:50:37;61.70;;;32.23;;
15944;SDS011;30172;48.832;8.732;2022-12-10T07:53:02;59.27;;;32.17;;
15944;SDS011;30172;48.832;8.732;2022-12-10T07:55:28;55.40;;;31.63;;
15944;SDS011;30172;48.832;8.732;2022-12-10T07:57:53;59.33;;;30.97;;
15944;SDS011;30172;48.832;8.732;2022-12-10T08:00:18;51.10;;;30.47;;
15944;SDS011;30172;48.832;8.732;2022-12-10T08:02:44;56.30;;;31.03;;
15944;SDS011;30172;48.832;8.732;2022-12-10T08:05:09;53.37;;;29.77;;
15944;SDS011;30172;48.832;8.732;2022-12-10T08:07:35;56.50;;;32.07;;
15944;SDS011;30172;48.832;8.732;2022-12-10T08:10:00;58.57;;;31.20;;
15944;SDS011;30172;48.832;8.732;2022-12-10T08:12:26;53.77;;;30.00;;
15944;SDS011;30172;48.832;8.732;2022-12-10T08:14:51;51.63;;;30.37;;
15944;SDS011;30172;48.832;8.732;2022-12-10T08:17:16;51.70;;;30.47;;
15944;SDS011;30172;48.832;8.732;2022-12-10T08:19:42;57.13;;;31.73;;
15944;SDS011;30172;48.832;8.732;2022-12-10T08:22:07;55.77;;;31.80;;
15944;SDS011;30172;48.832;8.732;2022-12-10T08:24:32;59.57;;;32.67;;
15944;SDS011;30172;48.832;8.732;2022-12-10T08:26:58;56.37;;;31.80;;
15944;SDS011;30172;48.832;8.732;2022-12-10T08:29:23;61.17;;;32.33;;
15944;SDS011;30172;48.832;8.732;2022-12-10T08:31:48;53.73;;;31.10;;
15944;SDS011;30172;48.832;8.732;2022-12-10T08:34:14;57.63;;;33.33;;
15944;SDS011;30172;48.832;8.732;2022-12-10T08:36:41;50.70;;;30.47;;
15944;SDS011;30172;48.832;8.732;2022-12-10T08:39:06;54.60;;;31.60;;
15944;SDS011;30172;48.832;8.732;2022-12-10T08:41:32;53.43;;;30.53;;
15944;SDS011;30172;48.832;8.732;2022-12-10T08:43:57;50.80;;;29.47;;
15944;SDS011;30172;48.832;8.732;2022-12-10T08:46:22;48.67;;;28.90;;
15944;SDS011;30172;48.832;8.732;2022-12-10T08:48:49;54.20;;;31.00;;
15944;SDS011;30172;48.832;8.732;2022-12-10T08:51:16;49.30;;;29.47;;
15944;SDS011;30172;48.832;8.732;2022-12-10T08:53:42;56.40;;;30.57;;
15944;SDS011;30172;48.832;8.732;2022-12-10T08:56:08;52.03;;;28.13;;
15944;SDS011;30172;48.832;8.732;2022-12-10T08:58:33;49.90;;;29.50;;
15944;SDS011;30172;48.832;8.732;2022-12-10T09:00:58;49.20;;;29.37;;
15944;SDS011;30172;48.832;8.732;2022-12-10T09:03:24;50.80;;;30.13;;
15944;SDS011;30172;48.832;8.732;2022-12-10T09:05:49;49.27;;;29.17;;
15944;SDS011;30172;48.832;8.732;2022-12-10T09:08:15;46.67;;;28.00;;
15944;SDS011;30172;48.832;8.732;2022-12-10T09:10:40;46.97;;;27.23;;
15944;SDS011;30172;48.832;8.732;2022-12-10T09:13:05;44.90;;;27.00;;
15944;SDS011;30172;48.832;8.732;2022-12-10T09:15:31;45.13;;;26.37;;
15944;SDS011;30172;48.832;8.732;2022-12-10T09:17:56;48.40;;;27.83;;
15944;SDS011;30172;48.832;8.732;2022-12-10T09:20:22;42.07;;;26.13;;
15944;SDS011;30172;48.832;8.732;2022-12-10T09:22:47;47.70;;;27.53;;
15944;SDS011;30172;48.832;8.732;2022-12-10T09:25:12;44.37;;;25.97;;
15944;SDS011;30172;48.832;8.732;2022-12-10T09:27:40;41.73;;;25.90;;
15944;SDS011;30172;48.832;8.732;2022-12-10T09:30:06;40.87;;;25.43;;
15944;SDS011;30172;48.832;8.732;2022-12-10T09:32:32;44.70;;;26.10;;
15944;SDS011;30172;48.832;8.732;2022-12-10T09:34:57;44.40;;;26.47;;
15944;SDS011;30172;48.832;8.732;2022-12-10T09:37:22;38.50;;;25.13;;
15944;SDS011;30172;48.832;8.732;2022-12-10T09:39:48;42.93;;;26.60;;
15944;SDS011;30172;48.832;8.732;2022-12-10T09:53:15;46.13;;;26.43;;
15944;SDS011;30172;48.832;8.732;2022-12-10T09:55:44;47.07;;;26.23;;
15944;SDS011;30172;48.832;8.732;2022-12-10T09:58:16;47.10;;;28.77;;
15944;SDS011;30172;48.832;8.732;2022-12-10T10:00:44;45.53;;;27.80;;
15944;SDS011;30172;48.832;8.732;2022-12-10T10:03:15;48.77;;;27.57;;
15944;SDS011;30172;48.832;8.732;2022-12-10T10:05:45;43.53;;;26.97;;
15944;SDS011;30172;48.832;8.732;2022-12-10T10:08:46;46.00;;;27.80;;
15944;SDS011;30172;48.832;8.732;2022-12-10T10:11:24;49.23;;;29.33;;
15944;SDS011;30172;48.832;8.732;2022-12-10T10:14:01;48.23;;;27.33;;
15944;SDS011;30172;48.832;8.732;2022-12-10T10:16:35;43.90;;;26.60;;
15944;SDS011;30172;48.832;8.732;2022-12-10T10:19:06;39.80;;;24.47;;
15944;SDS011;30172;48.832;8.732;2022-12-10T10:21:39;43.20;;;25.87;;
15944;SDS011;30172;48.832;8.732;2022-12-10T10:24:06;41.93;;;24.83;;
15944;SDS011;30172;48.832;8.732;2022-12-10T10:26:35;43.60;;;27.07;;
15944;SDS011;30172;48.832;8.732;2022-12-10T10:29:01;43.03;;;26.13;;
15944;SDS011;30172;48.832;8.732;2022-12-10T10:31:30;39.00;;;24.87;;
15944;SDS011;30172;48.832;8.732;2022-12-10T10:33:57;40.00;;;23.57;;
15944;SDS011;30172;48.832;8.732;2022-12-10T10:36:29;40.73;;;22.63;;
15944;SDS011;30172;48.832;8.732;2022-12-10T10:38:56;42.80;;;23.40;;
15944;SDS011;30172;48.832;8.732;2022-12-10T10:41:23;40.20;;;24.67;;
15944;SDS011;30172;48.832;8.732;2022-12-10T10:43:49;41.50;;;24.00;;
15944;SDS011;30172;48.832;8.732;2022-12-10T10:46:22;42.43;;;24.43;;
15944;SDS011;30172;48.832;8.732;2022-12-10T10:48:48;44.07;;;25.97;;
15944;SDS011;30172;48.832;8.732;2022-12-10T10:53:56;33.30;;;22.07;;
15944;SDS011;30172;48.832;8.732;2022-12-10T10:56:25;36.77;;;23.20;;
15944;SDS011;30172;48.832;8.732;2022-12-10T11:01:24;31.63;;;21.43;;
15944;SDS011;30172;48.832;8.732;2022-12-10T11:03:55;36.23;;;22.50;;
15944;SDS011;30172;48.832;8.732;2022-12-10T11:06:22;35.90;;;22.80;;
15944;SDS011;30172;48.832;8.732;2022-12-10T11:08:47;35.83;;;22.23;;
15944;SDS011;30172;48.832;8.732;2022-12-10T11:11:17;41.37;;;24.90;;
15944;SDS011;30172;48.832;8.732;2022-12-10T11:13:44;39.83;;;24.83;;
15944;SDS011;30172;48.832;8.732;2022-12-10T11:16:11;39.97;;;25.67;;
15944;SDS011;30172;48.832;8.732;2022-12-10T11:18:41;40.87;;;24.37;;
15944;SDS011;30172;48.832;8.732;2022-12-10T11:21:18;39.50;;;24.77;;
15944;SDS011;30172;48.832;8.732;2022-12-10T11:23:47;39.60;;;25.23;;
15944;SDS011;30172;48.832;8.732;2022-12-10T11:26:32;39.60;;;24.13;;
15944;SDS011;30172;48.832;8.732;2022-12-10T11:29:24;38.67;;;22.77;;
15944;SDS011;30172;48.832;8.732;2022-12-10T11:32:13;44.03;;;27.50;;
15944;SDS011;30172;48.832;8.732;2022-12-10T11:34:49;36.33;;;23.07;;
15944;SDS011;30172;48.832;8.732;2022-12-10T11:37:30;37.53;;;23.03;;
15944;SDS011;30172;48.832;8.732;2022-12-10T11:42:43;41.03;;;24.37;;
15944;SDS011;30172;48.832;8.732;2022-12-10T11:47:51;39.80;;;23.50;;
15944;SDS011;30172;48.832;8.732;2022-12-10T11:56:12;40.13;;;24.23;;
15944;SDS011;30172;48.832;8.732;2022-12-10T12:10:57;38.40;;;22.70;;
15944;SDS011;30172;48.832;8.732;2022-12-10T12:13:25;42.63;;;23.10;;
15944;SDS011;30172;48.832;8.732;2022-12-10T12:15:56;37.77;;;23.13;;
15944;SDS011;30172;48.832;8.732;2022-12-10T12:18:26;38.03;;;21.80;;
15944;SDS011;30172;48.832;8.732;2022-12-10T12:21:15;37.73;;;22.13;;
15944;SDS011;30172;48.832;8.732;2022-12-10T12:23:49;41.97;;;24.80;;
15944;SDS011;30172;48.832;8.732;2022-12-10T12:26:29;40.50;;;24.40;;
15944;SDS011;30172;48.832;8.732;2022-12-10T12:31:43;36.57;;;23.77;;
15944;SDS011;30172;48.832;8.732;2022-12-10T12:34:20;41.03;;;24.70;;
15944;SDS011;30172;48.832;8.732;2022-12-10T12:36:47;37.37;;;23.47;;
15944;SDS011;30172;48.832;8.732;2022-12-10T12:44:17;51.10;;;27.93;;
15944;SDS011;30172;48.832;8.732;2022-12-10T12:46:45;47.57;;;26.47;;
15944;SDS011;30172;48.832;8.732;2022-12-10T12:54:44;39.50;;;23.67;;
15944;SDS011;30172;48.832;8.732;2022-12-10T12:57:14;40.27;;;24.53;;
15944;SDS011;30172;48.832;8.732;2022-12-10T13:03:05;34.50;;;21.60;;
15944;SDS011;30172;48.832;8.732;2022-12-10T13:05:16;32.33;;;21.10;;
15944;SDS011;30172;48.832;8.732;2022-12-10T13:08:15;31.57;;;19.43;;
15944;SDS011;30172;48.832;8.732;2022-12-10T13:13:37;30.07;;;19.57;;
15944;SDS011;30172;48.832;8.732;2022-12-10T13:35:48;40.60;;;23.57;;
15944;SDS011;30172;48.832;8.732;2022-12-10T13:37:55;34.97;;;23.27;;
15944;SDS011;30172;48.832;8.732;2022-12-10T13:40:25;40.80;;;24.70;;
15944;SDS011;30172;48.832;8.732;2022-12-10T13:43:26;39.03;;;22.77;;
15944;SDS011;30172;48.832;8.732;2022-12-10T13:46:33;38.23;;;23.07;;
15944;SDS011;30172;48.832;8.732;2022-12-10T13:49:19;35.37;;;21.37;;
15944;SDS011;30172;48.832;8.732;2022-12-10T13:52:07;35.90;;;21.97;;
15944;SDS011;30172;48.832;8.732;2022-12-10T13:54:42;33.67;;;21.23;;
15944;SDS011;30172;48.832;8.732;2022-12-10T14:07:54;35.20;;;21.00;;
15944;SDS011;30172;48.832;8.732;2022-12-10T14:10:21;35.87;;;21.80;;
15944;SDS011;30172;48.832;8.732;2022-12-10T14:12:50;35.37;;;21.97;;
15944;SDS011;30172;48.832;8.732;2022-12-10T14:15:19;36.53;;;20.87;;
15944;SDS011;30172;48.832;8.732;2022-12-10T14:17:48;35.10;;;20.33;;
15944;SDS011;30172;48.832;8.732;2022-12-10T14:20:16;34.63;;;20.97;;
15944;SDS011;30172;48.832;8.732;2022-12-10T14:22:44;34.63;;;21.13;;
15944;SDS011;30172;48.832;8.732;2022-12-10T14:25:12;34.00;;;21.00;;
15944;SDS011;30172;48.832;8.732;2022-12-10T14:27:40;35.10;;;21.20;;
15944;SDS011;30172;48.832;8.732;2022-12-10T14:30:14;33.83;;;20.83;;
15944;SDS011;30172;48.832;8.732;2022-12-10T14:32:41;34.00;;;20.13;;
15944;SDS011;30172;48.832;8.732;2022-12-10T14:35:07;34.90;;;20.77;;
15944;SDS011;30172;48.832;8.732;2022-12-10T14:37:39;30.40;;;19.60;;
15944;SDS011;30172;48.832;8.732;2022-12-10T14:40:06;36.10;;;21.87;;
15944;SDS011;30172;48.832;8.732;2022-12-10T14:42:32;33.33;;;21.40;;
15944;SDS011;30172;48.832;8.732;2022-12-10T14:45:05;34.43;;;20.63;;
15944;SDS011;30172;48.832;8.732;2022-12-10T14:47:38;30.07;;;18.67;;
15944;SDS011;30172;48.832;8.732;2022-12-10T14:50:05;34.93;;;21.23;;
15944;SDS011;30172;48.832;8.732;2022-12-10T14:52:39;31.97;;;20.73;;
15944;SDS011;30172;48.832;8.732;2022-12-10T14:55:13;40.40;;;23.83;;
15944;SDS011;30172;48.832;8.732;2022-12-10T14:57:45;37.43;;;23.23;;
15944;SDS011;30172;48.832;8.732;2022-12-10T15:02:47;25.87;;;17.00;;
15944;SDS011;30172;48.832;8.732;2022-12-10T15:05:24;30.67;;;19.53;;
15944;SDS011;30172;48.832;8.732;2022-12-10T15:10:24;30.77;;;19.87;;
15944;SDS011;30172;48.832;8.732;2022-12-10T15:12:50;27.67;;;18.00;;
15944;SDS011;30172;48.832;8.732;2022-12-10T15:17:54;30.23;;;18.07;;
15944;SDS011;30172;48.832;8.732;2022-12-10T15:28:52;27.77;;;17.53;;
15944;SDS011;30172;48.832;8.732;2022-12-10T15:31:46;26.47;;;18.73;;
15944;SDS011;30172;48.832;8.732;2022-12-10T15:34:13;29.53;;;19.07;;
15944;SDS011;30172;48.832;8.732;2022-12-10T15:36:39;29.33;;;18.87;;
15944;SDS011;30172;48.832;8.732;2022-12-10T15:39:13;27.37;;;18.00;;
15944;SDS011;30172;48.832;8.732;2022-12-10T15:41:54;29.17;;;18.17;;
15944;SDS011;30172;48.832;8.732;2022-12-10T15:49:49;30.23;;;17.87;;
15944;SDS011;30172;48.832;8.732;2022-12-10T15:52:18;30.13;;;18.63;;
15944;SDS011;30172;48.832;8.732;2022-12-10T15:54:46;28.17;;;17.80;;
15944;SDS011;30172;48.832;8.732;2022-12-10T15:57:13;28.17;;;18.00;;
15944;SDS011;30172;48.832;8.732;2022-12-10T15:59:43;27.43;;;18.63;;
15944;SDS011;30172;48.832;8.732;2022-12-10T16:07:48;29.37;;;18.47;;
15944;SDS011;30172;48.832;8.732;2022-12-10T16:10:16;28.27;;;18.47;;
15944;SDS011;30172;48.832;8.732;2022-12-10T16:12:43;30.30;;;19.27;;
15944;SDS011;30172;48.832;8.732;2022-12-10T16:15:11;29.63;;;18.13;;
15944;SDS011;30172;48.832;8.732;2022-12-10T16:17:42;27.43;;;18.60;;
15944;SDS011;30172;48.832;8.732;2022-12-10T16:20:17;31.40;;;19.40;;
15944;SDS011;30172;48.832;8.732;2022-12-10T16:22:50;27.03;;;17.97;;
15944;SDS011;30172;48.832;8.732;2022-12-10T16:25:16;30.83;;;18.63;;
15944;SDS011;30172;48.832;8.732;2022-12-10T16:27:41;27.33;;;18.67;;
15944;SDS011;30172;48.832;8.732;2022-12-10T16:32:44;27.27;;;17.30;;
15944;SDS011;30172;48.832;8.732;2022-12-10T16:35:10;29.83;;;18.87;;
15944;SDS011;30172;48.832;8.732;2022-12-10T16:37:38;30.13;;;19.80;;
15944;SDS011;30172;48.832;8.732;2022-12-10T16:40:04;29.30;;;18.57;;
15944;SDS011;30172;48.832;8.732;2022-12-10T16:42:29;28.27;;;18.60;;
15944;SDS011;30172;48.832;8.732;2022-12-10T16:44:55;30.47;;;19.53;;
15944;SDS011;30172;48.832;8.732;2022-12-10T16:47:20;29.80;;;18.30;;
15944;SDS011;30172;48.832;8.732;2022-12-10T16:49:45;28.70;;;18.27;;